sensor_id;sensor_type;location;lat;lon;timestamp;temperature;humidity
29255;DHT22;16277;48.890;2.306;2023-11-21T00:01:45;14.00;99.90
29255;DHT22;16277;48.890;2.306;2023-11-21T00:16:50;14.20;99.90
29255;DHT22;16277;48.890;2.306;2023-11-21T00:32:13;14.10;99.90
29255;DHT22;16277;48.890;2.306;2023-11-21T00:47:36;13.90;99.90
29255;DHT22;16277;48.890;2.306;2023-11-21T01:02:43;13.80;99.90
29255;DHT22;16277;48.890;2.306;2023-11-21T01:17:48;14.10;99.90
29255;DHT22;16277;48.890;2.306;2023-11-21T01:32:53;13.90;99.90
29255;DHT22;16277;48.890;2.306;2023-11-21T01:47:58;14.10;99.90
29255;DHT22;16277;48.890;2.306;2023-11-21T02:03:04;14.10;99.90
29255;DHT22;16277;48.890;2.306;2023-11-21T02:18:10;14.00;99.90
29255;DHT22;16277;48.890;2.306;2023-11-21T02:33:15;14.20;99.90
29255;DHT22;16277;48.890;2.306;2023-11-21T02:48:19;14.30;99.90
29255;DHT22;16277;48.890;2.306;2023-11-21T03:03:27;14.00;99.90
29255;DHT22;16277;48.890;2.306;2023-11-21T03:18:32;13.80;99.90
29255;DHT22;16277;48.890;2.306;2023-11-21T03:33:37;13.50;99.90
29255;DHT22;16277;48.890;2.306;2023-11-21T03:48:41;13.70;99.90
29255;DHT22;16277;48.890;2.306;2023-11-21T04:03:46;13.80;99.90
29255;DHT22;16277;48.890;2.306;2023-11-21T04:18:51;13.70;99.90
29255;DHT22;16277;48.890;2.306;2023-11-21T04:33:55;14.40;99.90
29255;DHT22;16277;48.890;2.306;2023-11-21T04:49:00;13.90;99.90
29255;DHT22;16277;48.890;2.306;2023-11-21T05:04:04;13.30;99.90
29255;DHT22;16277;48.890;2.306;2023-11-21T05:19:13;13.60;99.90
29255;DHT22;16277;48.890;2.306;2023-11-21T05:34:17;14.00;99.90
29255;DHT22;16277;48.890;2.306;2023-11-21T05:49:23;13.80;99.90
29255;DHT22;16277;48.890;2.306;2023-11-21T06:04:29;14.00;99.90
29255;DHT22;16277;48.890;2.306;2023-11-21T06:19:34;13.60;99.90
29255;DHT22;16277;48.890;2.306;2023-11-21T06:34:39;14.20;99.90
29255;DHT22;16277;48.890;2.306;2023-11-21T06:49:44;14.00;99.90
29255;DHT22;16277;48.890;2.306;2023-11-21T07:04:51;14.40;99.90
29255;DHT22;16277;48.890;2.306;2023-11-21T07:19:55;13.90;99.90
29255;DHT22;16277;48.890;2.306;2023-11-21T07:35:00;13.80;99.90
29255;DHT22;16277;48.890;2.306;2023-11-21T07:50:05;14.20;99.90
29255;DHT22;16277;48.890;2.306;2023-11-21T08:05:11;13.70;99.90
29255;DHT22;16277;48.890;2.306;2023-11-21T08:20:27;14.40;99.90
29255;DHT22;16277;48.890;2.306;2023-11-21T08:35:32;14.10;99.90
29255;DHT22;16277;48.890;2.306;2023-11-21T08:50:37;14.00;99.90
29255;DHT22;16277;48.890;2.306;2023-11-21T09:05:41;14.30;99.90
29255;DHT22;16277;48.890;2.306;2023-11-21T09:20:46;14.20;99.90
29255;DHT22;16277;48.890;2.306;2023-11-21T09:35:50;14.50;99.90
29255;DHT22;16277;48.890;2.306;2023-11-21T09:50:56;14.70;99.90
29255;DHT22;16277;48.890;2.306;2023-11-21T10:06:02;14.20;99.90
29255;DHT22;16277;48.890;2.306;2023-11-21T10:21:09;14.40;99.90
29255;DHT22;16277;48.890;2.306;2023-11-21T10:36:27;14.30;99.90
29255;DHT22;16277;48.890;2.306;2023-11-21T10:51:31;13.90;99.90
29255;DHT22;16277;48.890;2.306;2023-11-21T11:06:36;14.60;99.90
29255;DHT22;16277;48.890;2.306;2023-11-21T11:21:48;14.30;99.90
29255;DHT22;16277;48.890;2.306;2023-11-21T11:37:00;14.70;99.90
29255;DHT22;16277;48.890;2.306;2023-11-21T11:52:37;14.70;99.90
29255;DHT22;16277;48.890;2.306;2023-11-21T12:07:52;14.70;99.90
29255;DHT22;16277;48.890;2.306;2023-11-21T12:22:58;14.40;99.90
29255;DHT22;16277;48.890;2.306;2023-11-21T12:38:04;14.50;99.90
29255;DHT22;16277;48.890;2.306;2023-11-21T12:53:10;15.40;99.90
29255;DHT22;16277;48.890;2.306;2023-11-21T13:08:16;15.30;99.90
29255;DHT22;16277;48.890;2.306;2023-11-21T13:23:24;15.30;99.90
29255;DHT22;16277;48.890;2.306;2023-11-21T13:38:28;15.20;99.90
29255;DHT22;16277;48.890;2.306;2023-11-21T13:53:36;15.10;99.90
29255;DHT22;16277;48.890;2.306;2023-11-21T14:08:42;15.10;99.90
29255;DHT22;16277;48.890;2.306;2023-11-21T14:23:47;15.40;99.90
29255;DHT22;16277;48.890;2.306;2023-11-21T14:38:52;15.50;99.90
29255;DHT22;16277;48.890;2.306;2023-11-21T14:53:57;15.60;99.90
29255;DHT22;16277;48.890;2.306;2023-11-21T15:09:09;15.70;99.90
29255;DHT22;16277;48.890;2.306;2023-11-21T15:24:31;15.20;99.90
29255;DHT22;16277;48.890;2.306;2023-11-21T15:39:35;14.90;99.90
29255;DHT22;16277;48.890;2.306;2023-11-21T15:54:40;15.20;99.90
29255;DHT22;16277;48.890;2.306;2023-11-21T16:09:48;15.30;99.90
29255;DHT22;16277;48.890;2.306;2023-11-21T16:24:53;15.20;99.90
29255;DHT22;16277;48.890;2.306;2023-11-21T16:39:57;14.40;99.90
29255;DHT22;16277;48.890;2.306;2023-11-21T16:55:03;14.50;99.90
29255;DHT22;16277;48.890;2.306;2023-11-21T17:10:09;13.80;99.90
29255;DHT22;16277;48.890;2.306;2023-11-21T17:25:15;14.10;99.90
29255;DHT22;16277;48.890;2.306;2023-11-21T17:40:20;14.70;99.90
29255;DHT22;16277;48.890;2.306;2023-11-21T17:55:25;14.90;99.90
29255;DHT22;16277;48.890;2.306;2023-11-21T18:10:29;14.30;99.90
29255;DHT22;16277;48.890;2.306;2023-11-21T18:25:35;14.10;99.90
29255;DHT22;16277;48.890;2.306;2023-11-21T18:40:41;14.10;99.90
29255;DHT22;16277;48.890;2.306;2023-11-21T18:55:46;13.80;99.90
29255;DHT22;16277;48.890;2.306;2023-11-21T19:10:51;14.00;99.90
29255;DHT22;16277;48.890;2.306;2023-11-21T19:25:55;14.00;99.90
29255;DHT22;16277;48.890;2.306;2023-11-21T19:41:00;14.00;99.90
29255;DHT22;16277;48.890;2.306;2023-11-21T19:56:06;14.10;99.90
29255;DHT22;16277;48.890;2.306;2023-11-21T20:11:19;14.50;99.90
29255;DHT22;16277;48.890;2.306;2023-11-21T20:26:25;14.90;99.90
29255;DHT22;16277;48.890;2.306;2023-11-21T20:41:30;14.90;99.90
29255;DHT22;16277;48.890;2.306;2023-11-21T20:56:35;14.30;99.90
29255;DHT22;16277;48.890;2.306;2023-11-21T21:11:39;14.50;99.90
29255;DHT22;16277;48.890;2.306;2023-11-21T21:26:44;14.60;99.90
29255;DHT22;16277;48.890;2.306;2023-11-21T21:41:50;14.50;99.90
29255;DHT22;16277;48.890;2.306;2023-11-21T21:56:55;14.30;99.90
29255;DHT22;16277;48.890;2.306;2023-11-21T22:11:59;14.00;99.90
29255;DHT22;16277;48.890;2.306;2023-11-21T22:27:04;14.30;99.90
29255;DHT22;16277;48.890;2.306;2023-11-21T22:42:09;14.30;99.90
29255;DHT22;16277;48.890;2.306;2023-11-21T22:57:13;14.30;99.90
29255;DHT22;16277;48.890;2.306;2023-11-21T23:12:17;13.40;99.90
29255;DHT22;16277;48.890;2.306;2023-11-21T23:27:22;14.00;99.90
29255;DHT22;16277;48.890;2.306;2023-11-21T23:42:27;14.60;99.90
29255;DHT22;16277;48.890;2.306;2023-11-21T23:57:32;14.10;99.90
